createdAt,value
2023-12-07T00:00:23.071Z,86.20
2023-12-07T00:03:16.775Z,92.40
2023-12-07T00:05:49.016Z,90.70
2023-12-07T00:08:21.102Z,104.70
2023-12-07T00:10:53.165Z,113.90
2023-12-07T00:13:25.269Z,93.40
2023-12-07T00:15:57.355Z,93.00
2023-12-07T00:18:29.474Z,91.50
2023-12-07T00:21:01.535Z,95.40
2023-12-07T00:23:33.534Z,98.10
2023-12-07T00:26:05.769Z,93.70
2023-12-07T00:28:37.785Z,87.90
2023-12-07T00:31:10.271Z,92.80
2023-12-07T00:33:43.230Z,115.20
2023-12-07T00:36:15.227Z,105.00
2023-12-07T00:38:47.236Z,100.00
2023-12-07T00:41:19.606Z,100.40
2023-12-07T00:43:51.697Z,97.70
2023-12-07T00:46:24.468Z,101.60
2023-12-07T00:48:56.612Z,100.70
2023-12-07T00:51:28.652Z,93.50
2023-12-07T00:54:00.642Z,85.40
2023-12-07T00:56:32.614Z,96.10
2023-12-07T00:59:04.550Z,83.10
2023-12-07T01:01:36.575Z,94.70
2023-12-07T01:04:08.794Z,92.10
2023-12-07T01:06:41.017Z,94.00
2023-12-07T01:09:14.474Z,95.50
2023-12-07T01:11:46.554Z,99.00
2023-12-07T01:14:18.923Z,89.10
2023-12-07T01:16:50.896Z,102.90
2023-12-07T01:19:23.579Z,99.80
2023-12-07T01:21:55.584Z,88.50
2023-12-07T01:24:27.759Z,101.10
2023-12-07T01:27:00.047Z,96.00
2023-12-07T01:29:32.033Z,93.20
2023-12-07T01:32:04.043Z,93.70
2023-12-07T01:34:36.114Z,86.60
2023-12-07T01:37:08.953Z,87.80
2023-12-07T01:39:40.993Z,94.60
2023-12-07T01:42:13.572Z,85.00
2023-12-07T01:44:45.867Z,86.90
2023-12-07T01:47:18.680Z,89.30
2023-12-07T01:49:50.729Z,87.10
2023-12-07T01:52:24.703Z,89.70
2023-12-07T01:54:57.334Z,89.60
2023-12-07T01:57:29.373Z,84.60
2023-12-07T02:00:01.528Z,94.50
2023-12-07T02:02:36.859Z,89.40
2023-12-07T02:05:10.136Z,90.00
2023-12-07T02:07:43.531Z,86.90
2023-12-07T02:10:16.731Z,86.20
2023-12-07T02:12:49.848Z,85.90
2023-12-07T02:15:22.289Z,86.50
2023-12-07T02:18:04.277Z,94.50
2023-12-07T02:20:45.508Z,96.30
2023-12-07T02:23:32.139Z,98.00
2023-12-07T02:26:55.905Z,93.70
2023-12-07T02:29:27.866Z,84.20
2023-12-07T02:31:59.865Z,89.10
2023-12-07T02:34:31.829Z,83.90
2023-12-07T02:37:06.022Z,93.60
2023-12-07T02:39:38.405Z,86.90
2023-12-07T02:42:12.115Z,86.90
2023-12-07T02:44:44.561Z,83.30
2023-12-07T02:47:16.869Z,80.90
2023-12-07T02:49:48.926Z,87.10
2023-12-07T02:52:21.527Z,85.30
2023-12-07T02:54:53.721Z,86.70
2023-12-07T02:57:25.658Z,84.40
2023-12-07T02:59:58.028Z,87.50
2023-12-07T03:02:30.372Z,89.80
2023-12-07T03:05:02.491Z,86.30
2023-12-07T03:07:34.897Z,91.90
2023-12-07T03:10:08.250Z,92.30
2023-12-07T03:12:40.320Z,91.80
2023-12-07T03:15:14.753Z,88.90
2023-12-07T03:17:46.750Z,83.40
2023-12-07T03:20:19.227Z,88.40
2023-12-07T03:22:51.347Z,91.10
2023-12-07T03:25:23.935Z,82.20
2023-12-07T03:27:56.010Z,93.00
2023-12-07T03:30:28.053Z,83.00
2023-12-07T03:33:00.110Z,86.90
2023-12-07T03:35:32.306Z,87.50
2023-12-07T03:38:04.709Z,87.80
2023-12-07T03:40:36.725Z,87.80
2023-12-07T03:43:08.889Z,89.40
2023-12-07T03:45:40.876Z,89.40
2023-12-07T03:48:12.903Z,87.00
2023-12-07T03:50:45.085Z,91.80
2023-12-07T03:53:17.035Z,90.90
2023-12-07T03:55:48.990Z,91.00
2023-12-07T03:58:20.968Z,87.80
2023-12-07T04:00:52.977Z,94.50
2023-12-07T04:03:24.978Z,89.20
2023-12-07T04:05:57.069Z,89.80
2023-12-07T04:08:29.150Z,91.60
2023-12-07T04:11:01.132Z,84.20
2023-12-07T04:13:33.183Z,88.20
2023-12-07T04:16:05.455Z,89.40
2023-12-07T04:18:37.741Z,100.60
2023-12-07T04:21:10.307Z,107.50
2023-12-07T04:23:42.292Z,161.00
2023-12-07T04:26:14.524Z,150.60
2023-12-07T04:28:46.558Z,138.10
2023-12-07T04:31:18.720Z,280.90
2023-12-07T04:33:50.731Z,421.30
2023-12-07T04:36:22.788Z,507.20
2023-12-07T04:38:54.725Z,669.90
2023-12-07T04:41:26.738Z,454.70
2023-12-07T04:43:58.807Z,269.30
2023-12-07T04:46:30.978Z,248.50
2023-12-07T04:49:03.087Z,158.00
2023-12-07T04:51:35.498Z,193.80
2023-12-07T04:54:16.164Z,206.30
2023-12-07T04:56:51.288Z,433.20
2023-12-07T04:59:23.291Z,389.70
2023-12-07T05:01:55.291Z,444.60
2023-12-07T05:04:27.279Z,240.00
2023-12-07T05:06:59.295Z,335.20
2023-12-07T05:09:32.371Z,221.20
2023-12-07T05:12:04.391Z,253.00
2023-12-07T05:14:37.498Z,399.20
2023-12-07T05:17:09.455Z,326.90
2023-12-07T05:19:41.513Z,349.50
2023-12-07T05:22:13.554Z,167.90
2023-12-07T05:24:45.520Z,129.30
2023-12-07T05:27:17.476Z,176.80
2023-12-07T05:29:49.398Z,207.10
2023-12-07T05:32:21.415Z,160.10
2023-12-07T05:34:53.500Z,107.40
2023-12-07T05:37:25.489Z,95.70
2023-12-07T05:39:57.444Z,97.20
2023-12-07T05:42:29.484Z,91.20
2023-12-07T05:45:01.727Z,94.30
2023-12-07T05:47:33.746Z,156.90
2023-12-07T05:50:06.597Z,104.60
2023-12-07T05:52:38.625Z,90.10
2023-12-07T05:55:11.225Z,80.90
2023-12-07T05:57:43.188Z,77.40
2023-12-07T06:00:17.601Z,87.90
2023-12-07T06:02:50.703Z,107.80
2023-12-07T06:05:23.452Z,84.10
2023-12-07T06:07:56.717Z,97.90
2023-12-07T06:10:28.708Z,97.70
2023-12-07T06:13:02.045Z,80.50
2023-12-07T06:15:34.103Z,81.80
2023-12-07T06:18:06.756Z,78.30
2023-12-07T06:20:38.787Z,81.80
2023-12-07T06:23:13.960Z,76.20
2023-12-07T06:25:46.355Z,82.00
2023-12-07T06:28:18.363Z,84.80
2023-12-07T06:30:50.586Z,82.20
2023-12-07T06:33:22.725Z,79.80
2023-12-07T06:35:54.820Z,78.70
2023-12-07T06:38:26.953Z,79.90
2023-12-07T06:40:59.231Z,88.70
2023-12-07T06:43:31.285Z,81.80
2023-12-07T06:46:05.451Z,87.00
2023-12-07T06:48:37.706Z,82.80
2023-12-07T06:51:10.201Z,107.30
2023-12-07T06:53:42.818Z,120.80
2023-12-07T06:56:16.103Z,113.50
2023-12-07T06:58:48.278Z,141.40
2023-12-07T07:01:20.319Z,128.70
2023-12-07T07:03:52.381Z,86.30
2023-12-07T07:06:24.438Z,121.20
2023-12-07T07:08:59.238Z,128.50
2023-12-07T07:11:32.173Z,106.90
2023-12-07T07:14:04.229Z,104.90
2023-12-07T07:16:36.224Z,104.90
2023-12-07T07:19:08.272Z,115.00
2023-12-07T07:21:40.475Z,92.60
2023-12-07T07:24:12.776Z,85.20
2023-12-07T07:26:44.806Z,65.50
2023-12-07T07:29:16.960Z,85.20
2023-12-07T07:31:49.120Z,82.60
2023-12-07T07:34:21.489Z,76.00
2023-12-07T07:36:53.609Z,71.80
2023-12-07T07:39:25.545Z,81.70
2023-12-07T07:41:57.537Z,89.10
2023-12-07T07:44:29.501Z,84.50
2023-12-07T07:47:01.454Z,88.10
2023-12-07T07:49:33.490Z,81.70
2023-12-07T07:52:06.290Z,85.00
2023-12-07T07:54:41.081Z,84.00
2023-12-07T07:57:13.068Z,88.40
2023-12-07T07:59:46.270Z,91.40
2023-12-07T08:02:18.424Z,80.40
2023-12-07T08:04:50.417Z,152.20
2023-12-07T08:07:22.671Z,251.00
2023-12-07T08:09:55.428Z,155.40
2023-12-07T08:12:27.435Z,100.10
2023-12-07T08:14:59.452Z,133.50
2023-12-07T08:17:32.306Z,178.30
2023-12-07T08:20:04.274Z,141.20
2023-12-07T08:22:36.384Z,116.70
2023-12-07T08:25:11.953Z,119.40
2023-12-07T08:27:45.559Z,112.50
2023-12-07T08:30:19.973Z,90.70
2023-12-07T08:32:52.170Z,112.50
2023-12-07T08:35:24.597Z,91.70
2023-12-07T08:37:57.228Z,84.30
2023-12-07T08:40:29.367Z,79.90
2023-12-07T08:43:01.433Z,102.50
2023-12-07T08:45:34.109Z,115.40
2023-12-07T08:48:06.639Z,97.90
2023-12-07T08:50:38.620Z,105.60
2023-12-07T08:53:10.673Z,94.20
2023-12-07T08:55:42.776Z,85.10
2023-12-07T08:58:14.896Z,81.30
2023-12-07T09:00:46.926Z,91.30
2023-12-07T09:03:18.832Z,78.40
2023-12-07T09:05:50.900Z,97.80
2023-12-07T09:08:23.424Z,85.90
2023-12-07T09:10:55.455Z,89.30
2023-12-07T09:13:27.746Z,111.20
2023-12-07T09:15:59.710Z,99.90
2023-12-07T09:18:31.677Z,99.90
2023-12-07T09:21:04.364Z,99.00
2023-12-07T09:23:38.714Z,108.20
2023-12-07T09:26:10.706Z,122.20
2023-12-07T09:28:42.812Z,136.60
2023-12-07T09:31:14.830Z,125.70
2023-12-07T09:33:49.062Z,238.70
2023-12-07T09:36:22.414Z,210.40
2023-12-07T09:38:54.351Z,158.30
2023-12-07T09:41:28.849Z,230.20
2023-12-07T09:44:02.194Z,206.90
2023-12-07T09:46:34.963Z,154.80
2023-12-07T09:49:07.150Z,127.40
2023-12-07T09:51:41.714Z,97.50
2023-12-07T09:54:14.761Z,97.90
2023-12-07T09:56:47.572Z,94.60
2023-12-07T09:59:22.348Z,91.70
2023-12-07T10:01:54.354Z,85.90
2023-12-07T10:04:27.629Z,101.20
2023-12-07T10:07:00.274Z,107.40
2023-12-07T10:09:33.721Z,95.70
2023-12-07T10:12:11.964Z,92.20
2023-12-07T10:14:44.845Z,94.60
2023-12-07T10:17:17.114Z,105.30
2023-12-07T10:20:09.668Z,89.60
2023-12-07T10:22:43.026Z,94.90
2023-12-07T10:25:16.577Z,95.30
2023-12-07T10:27:49.280Z,92.70
2023-12-07T10:30:26.633Z,96.60
2023-12-07T10:32:58.952Z,95.40
2023-12-07T10:35:31.621Z,104.70
2023-12-07T10:38:03.627Z,95.20
2023-12-07T10:40:35.702Z,104.30
2023-12-07T10:43:09.821Z,96.10
2023-12-07T10:45:45.839Z,119.10
2023-12-07T10:48:19.231Z,114.70
2023-12-07T10:50:56.316Z,113.20
2023-12-07T10:53:38.681Z,101.00
2023-12-07T10:56:18.783Z,103.60
2023-12-07T10:58:51.801Z,96.60
2023-12-07T11:01:25.021Z,107.00
2023-12-07T11:03:58.378Z,107.20
2023-12-07T11:06:30.971Z,102.30
2023-12-07T11:09:05.322Z,94.10
2023-12-07T11:11:43.332Z,100.60
2023-12-07T11:14:17.152Z,113.30
2023-12-07T11:16:49.816Z,106.00
2023-12-07T11:19:50.064Z,124.20
2023-12-07T11:22:24.489Z,110.40
2023-12-07T11:25:02.749Z,105.90
2023-12-07T11:27:35.880Z,99.20
2023-12-07T11:30:10.105Z,84.40
2023-12-07T11:32:42.311Z,99.30
2023-12-07T11:35:16.990Z,96.80
2023-12-07T11:38:09.746Z,104.80
2023-12-07T11:40:42.893Z,105.60
2023-12-07T11:43:33.305Z,98.40
2023-12-07T11:46:05.790Z,91.10
2023-12-07T11:48:38.268Z,96.60
2023-12-07T11:51:12.237Z,87.70
2023-12-07T11:53:44.315Z,85.00
2023-12-07T11:56:20.068Z,92.20
2023-12-07T11:58:54.068Z,92.40
2023-12-07T12:01:31.659Z,91.50
2023-12-07T12:04:05.527Z,98.40
2023-12-07T12:06:37.868Z,79.70
2023-12-07T12:09:12.905Z,103.10
2023-12-07T12:11:50.029Z,109.50
2023-12-07T12:14:23.779Z,119.30
2023-12-07T12:16:56.605Z,124.10
2023-12-07T12:19:33.486Z,131.30
2023-12-07T12:22:08.619Z,108.70
2023-12-07T12:24:42.660Z,92.50
2023-12-07T12:27:15.427Z,88.00
2023-12-07T12:29:48.151Z,116.20
2023-12-07T12:32:20.113Z,113.40
2023-12-07T12:34:55.726Z,115.80
2023-12-07T12:37:28.192Z,108.50
2023-12-07T12:40:04.232Z,88.80
2023-12-07T12:42:38.543Z,108.90
2023-12-07T12:45:15.694Z,100.00
2023-12-07T12:47:49.043Z,104.10
2023-12-07T12:50:41.917Z,106.30
2023-12-07T12:53:15.253Z,99.60
2023-12-07T12:55:50.590Z,122.10
2023-12-07T12:58:23.768Z,117.10
2023-12-07T13:00:58.096Z,107.30
2023-12-07T13:03:30.853Z,114.40
2023-12-07T13:06:03.940Z,121.00
2023-12-07T13:08:36.438Z,108.20
2023-12-07T13:11:10.108Z,109.50
2023-12-07T13:13:42.262Z,118.30
2023-12-07T13:16:16.078Z,114.80
2023-12-07T13:18:48.186Z,115.80
2023-12-07T13:21:20.458Z,120.20
2023-12-07T13:23:52.693Z,127.70
2023-12-07T13:26:25.526Z,109.10
2023-12-07T13:28:57.558Z,114.70
2023-12-07T13:31:29.588Z,118.50
2023-12-07T13:34:04.401Z,122.30
2023-12-07T13:36:38.915Z,133.30
2023-12-07T13:39:23.829Z,121.30
2023-12-07T13:42:04.181Z,123.80
2023-12-07T13:44:37.981Z,113.30
2023-12-07T13:47:11.040Z,131.80
2023-12-07T13:49:43.328Z,137.80
2023-12-07T13:52:17.688Z,132.10
2023-12-07T13:54:54.010Z,143.40
2023-12-07T13:57:27.139Z,120.10
2023-12-07T13:59:59.701Z,122.40
2023-12-07T14:02:32.557Z,118.20
2023-12-07T14:05:06.156Z,114.10
2023-12-07T14:07:38.371Z,115.90
2023-12-07T14:10:11.393Z,120.90
2023-12-07T14:12:43.926Z,118.50
2023-12-07T14:15:23.614Z,112.20
2023-12-07T14:18:03.794Z,119.40
2023-12-07T14:20:50.783Z,121.10
2023-12-07T14:23:27.896Z,109.30
2023-12-07T14:26:03.189Z,142.10
2023-12-07T14:31:15.564Z,395.70
2023-12-07T14:33:48.239Z,306.90
2023-12-07T14:36:21.249Z,461.60
2023-12-07T14:38:55.131Z,608.80
2023-12-07T14:41:27.418Z,314.20
2023-12-07T14:43:59.578Z,347.80
2023-12-07T14:46:32.174Z,199.80
2023-12-07T14:49:05.080Z,165.90
2023-12-07T14:51:37.637Z,145.50
2023-12-07T14:54:11.065Z,150.60
2023-12-07T14:56:46.317Z,132.70
2023-12-07T14:59:21.211Z,138.50
2023-12-07T15:01:53.557Z,127.70
2023-12-07T15:04:31.597Z,130.80
2023-12-07T15:07:07.281Z,123.50
2023-12-07T15:09:39.734Z,127.20
2023-12-07T15:12:12.259Z,141.90
2023-12-07T15:14:46.747Z,187.40
2023-12-07T15:17:18.900Z,267.30
2023-12-07T15:19:51.271Z,232.10
2023-12-07T15:22:24.001Z,187.20
2023-12-07T15:24:56.360Z,175.50
2023-12-07T15:27:28.612Z,171.60
2023-12-07T15:30:01.122Z,154.70
2023-12-07T15:32:33.681Z,152.00
2023-12-07T15:35:07.281Z,256.60
2023-12-07T15:37:39.574Z,283.40
2023-12-07T15:40:13.119Z,471.20
2023-12-07T15:42:45.304Z,452.80
2023-12-07T15:45:17.890Z,508.40
2023-12-07T15:47:53.801Z,368.90
2023-12-07T15:50:28.610Z,235.80
2023-12-07T15:53:00.772Z,201.40
2023-12-07T15:55:33.069Z,221.40
2023-12-07T15:58:06.903Z,233.30
2023-12-07T16:00:40.222Z,212.40
2023-12-07T16:03:12.385Z,175.60
2023-12-07T16:05:44.822Z,223.50
2023-12-07T16:08:18.246Z,179.70
2023-12-07T16:10:50.381Z,127.20
2023-12-07T16:13:23.145Z,133.00
2023-12-07T16:15:57.206Z,141.40
2023-12-07T16:18:29.758Z,204.50
2023-12-07T16:21:02.268Z,204.60
2023-12-07T16:23:34.545Z,211.80
2023-12-07T16:26:07.174Z,176.10
2023-12-07T16:28:39.645Z,157.20
2023-12-07T16:31:11.884Z,138.30
2023-12-07T16:33:44.615Z,137.30
2023-12-07T16:36:23.405Z,145.40
2023-12-07T16:39:01.496Z,138.50
2023-12-07T16:41:40.832Z,131.80
2023-12-07T16:44:17.510Z,135.60
2023-12-07T16:46:49.766Z,140.70
2023-12-07T16:49:23.738Z,145.30
2023-12-07T16:51:56.635Z,144.50
2023-12-07T16:54:29.974Z,165.70
2023-12-07T16:57:02.946Z,160.90
2023-12-07T16:59:35.579Z,180.00
2023-12-07T17:02:09.736Z,186.10
2023-12-07T17:04:42.408Z,236.80
2023-12-07T17:07:16.571Z,268.90
2023-12-07T17:09:48.748Z,281.60
2023-12-07T17:12:22.320Z,284.10
2023-12-07T17:14:54.902Z,251.30
2023-12-07T17:17:27.754Z,257.20
2023-12-07T17:20:00.465Z,249.30
2023-12-07T17:22:34.220Z,265.00
2023-12-07T17:25:09.218Z,232.20
2023-12-07T17:27:41.381Z,189.50
2023-12-07T17:30:15.205Z,203.60
2023-12-07T17:32:47.647Z,180.60
2023-12-07T17:35:20.253Z,171.00
2023-12-07T17:37:52.371Z,151.70
2023-12-07T17:40:24.580Z,144.80
2023-12-07T17:42:57.144Z,178.00
2023-12-07T17:45:30.281Z,159.00
2023-12-07T17:48:02.747Z,163.00
2023-12-07T17:50:35.490Z,178.30
2023-12-07T17:53:08.430Z,193.00
2023-12-07T17:55:41.076Z,318.20
2023-12-07T17:58:13.354Z,189.00
2023-12-07T18:00:45.522Z,174.40
2023-12-07T18:03:17.819Z,157.50
2023-12-07T18:05:51.111Z,172.10
2023-12-07T18:08:23.383Z,160.80
2023-12-07T18:10:55.663Z,174.10
2023-12-07T18:13:27.857Z,163.70
2023-12-07T18:16:00.647Z,151.40
2023-12-07T18:18:33.368Z,184.60
2023-12-07T18:21:07.384Z,188.40
2023-12-07T18:23:44.362Z,172.50
2023-12-07T18:26:16.961Z,174.50
2023-12-07T18:28:49.393Z,161.20
2023-12-07T18:31:22.306Z,162.40
2023-12-07T18:33:54.664Z,147.70
2023-12-07T18:36:27.509Z,168.60
2023-12-07T18:39:00.207Z,157.30
2023-12-07T18:41:33.772Z,156.10
2023-12-07T18:44:07.070Z,159.70
2023-12-07T18:46:42.221Z,156.80
2023-12-07T18:49:16.119Z,158.80
2023-12-07T18:51:49.344Z,140.30
2023-12-07T18:54:25.001Z,152.00
2023-12-07T18:56:57.912Z,165.00
2023-12-07T18:59:32.290Z,157.90
2023-12-07T19:02:05.684Z,155.20
2023-12-07T19:04:38.729Z,158.10
2023-12-07T19:07:11.570Z,157.50
2023-12-07T19:09:45.903Z,158.90
2023-12-07T19:12:18.610Z,164.10
2023-12-07T19:14:51.484Z,175.70
2023-12-07T19:17:25.098Z,183.20
2023-12-07T19:19:58.298Z,184.00
2023-12-07T19:22:31.247Z,172.50
2023-12-07T19:25:04.027Z,157.70
2023-12-07T19:27:38.985Z,158.60
2023-12-07T19:30:12.993Z,168.60
2023-12-07T19:32:45.622Z,176.70
2023-12-07T19:35:17.983Z,178.10
2023-12-07T19:37:50.169Z,165.00
2023-12-07T19:40:22.946Z,170.40
2023-12-07T19:42:55.898Z,165.20
2023-12-07T19:45:28.481Z,174.90
2023-12-07T19:48:01.237Z,173.70
2023-12-07T19:50:34.072Z,162.70
2023-12-07T19:53:07.072Z,172.80
2023-12-07T19:55:39.809Z,164.30
2023-12-07T19:58:12.164Z,166.90
2023-12-07T20:00:45.986Z,184.70
2023-12-07T20:03:18.595Z,188.50
2023-12-07T20:05:51.176Z,196.10
2023-12-07T20:08:24.083Z,202.10
2023-12-07T20:10:59.452Z,208.50
2023-12-07T20:13:34.709Z,217.50
2023-12-07T20:16:08.368Z,231.40
2023-12-07T20:18:41.541Z,228.40
2023-12-07T20:21:15.120Z,234.50
2023-12-07T20:23:48.012Z,242.90
2023-12-07T20:26:22.245Z,233.90
2023-12-07T20:28:55.199Z,221.70
2023-12-07T20:31:27.577Z,215.60
2023-12-07T20:34:00.512Z,208.10
2023-12-07T20:36:33.361Z,176.30
2023-12-07T20:39:06.146Z,178.40
2023-12-07T20:41:38.678Z,152.30
2023-12-07T20:44:11.244Z,147.20
2023-12-07T20:46:43.498Z,141.40
2023-12-07T20:49:15.923Z,138.80
2023-12-07T20:51:50.807Z,148.20
2023-12-07T20:54:23.399Z,152.20
2023-12-07T20:56:55.858Z,148.70
2023-12-07T20:59:28.093Z,153.50
2023-12-07T21:02:00.806Z,148.10
2023-12-07T21:04:33.144Z,156.10
2023-12-07T21:07:06.218Z,151.70
2023-12-07T21:09:39.015Z,152.20
2023-12-07T21:12:11.603Z,162.10
2023-12-07T21:14:44.055Z,167.70
2023-12-07T21:17:19.982Z,161.60
2023-12-07T21:19:52.293Z,168.70
2023-12-07T21:22:24.689Z,166.30
2023-12-07T21:24:58.219Z,166.10
2023-12-07T21:27:31.296Z,159.20
2023-12-07T21:30:04.184Z,179.00
2023-12-07T21:32:36.998Z,195.50
2023-12-07T21:35:11.767Z,201.20
2023-12-07T21:37:44.259Z,212.60
2023-12-07T21:40:16.653Z,232.30
2023-12-07T21:42:48.979Z,196.30
2023-12-07T21:45:21.212Z,222.80
2023-12-07T21:47:54.332Z,225.10
2023-12-07T21:50:26.641Z,218.00
2023-12-07T21:52:58.813Z,203.80
2023-12-07T21:55:30.988Z,224.90
2023-12-07T21:58:03.135Z,239.60
2023-12-07T22:00:35.221Z,198.60
2023-12-07T22:03:07.718Z,189.60
2023-12-07T22:05:40.508Z,173.50
2023-12-07T22:08:12.685Z,183.60
2023-12-07T22:10:44.867Z,176.40
2023-12-07T22:13:17.744Z,178.90
2023-12-07T22:15:49.818Z,183.50
2023-12-07T22:18:22.074Z,180.80
2023-12-07T22:20:54.380Z,191.30
2023-12-07T22:23:26.579Z,193.80
2023-12-07T22:25:58.756Z,192.50
2023-12-07T22:28:30.857Z,208.10
2023-12-07T22:31:03.118Z,202.00
2023-12-07T22:33:36.252Z,213.80
2023-12-07T22:36:09.757Z,222.80
2023-12-07T22:38:41.972Z,212.70
2023-12-07T22:41:17.321Z,212.30
2023-12-07T22:43:49.466Z,217.00
2023-12-07T22:46:22.115Z,204.90
2023-12-07T22:48:54.351Z,199.30
2023-12-07T22:51:26.646Z,196.20
2023-12-07T22:53:58.850Z,195.80
2023-12-07T22:56:30.993Z,192.80
2023-12-07T22:59:03.119Z,179.50
2023-12-07T23:01:35.238Z,191.40
2023-12-07T23:04:08.464Z,200.30
2023-12-07T23:06:40.777Z,194.30
2023-12-07T23:09:12.948Z,191.30
2023-12-07T23:11:45.212Z,194.00
2023-12-07T23:14:17.972Z,199.00
2023-12-07T23:16:50.035Z,206.80
2023-12-07T23:19:22.186Z,200.30
2023-12-07T23:21:54.400Z,183.70
2023-12-07T23:24:26.385Z,186.90
2023-12-07T23:26:58.412Z,191.80
2023-12-07T23:29:30.518Z,183.70
2023-12-07T23:32:02.675Z,197.30
2023-12-07T23:34:35.277Z,188.90
2023-12-07T23:37:07.620Z,196.00
2023-12-07T23:39:39.646Z,199.10
2023-12-07T23:42:11.788Z,201.40
2023-12-07T23:44:43.857Z,186.30
2023-12-07T23:47:15.864Z,185.60
2023-12-07T23:49:48.049Z,182.00
2023-12-07T23:52:20.288Z,156.70
2023-12-07T23:54:52.288Z,165.30
2023-12-07T23:57:24.540Z,143.00
2023-12-07T23:59:56.849Z,141.40
